createdAt,value
2023-04-26T07:57:26.399Z,72.49
2023-04-26T07:59:54.668Z,72.39
2023-04-26T08:02:29.884Z,72.13
2023-04-26T08:05:11.138Z,72.68
2023-04-26T08:07:39.796Z,72.06
2023-04-26T08:10:08.715Z,72.47
2023-04-26T08:12:38.373Z,72.36
2023-04-26T08:15:06.932Z,72.49
2023-04-26T08:17:35.252Z,72.75
2023-04-26T08:20:06.329Z,72.85
2023-04-26T08:22:34.564Z,73.12
2023-04-26T08:25:02.795Z,73.20
2023-04-26T08:27:32.249Z,73.14
2023-04-26T08:30:02.795Z,73.03
2023-04-26T08:32:31.031Z,73.11
2023-04-26T08:35:01.649Z,73.08
2023-04-26T08:37:31.930Z,73.34
2023-04-26T08:40:00.272Z,73.26
2023-04-26T08:42:29.063Z,72.82
2023-04-26T08:45:00.978Z,72.32
2023-04-26T08:47:33.258Z,72.41
2023-04-26T08:50:04.782Z,72.33
2023-04-26T08:52:33.372Z,71.46
2023-04-26T08:55:02.594Z,70.90
2023-04-26T08:57:31.862Z,70.60
2023-04-26T09:00:02.136Z,70.97
2023-04-26T09:02:30.838Z,70.38
2023-04-26T09:04:59.262Z,69.31
2023-04-26T09:07:32.253Z,69.11
2023-04-26T09:10:01.302Z,68.83
2023-04-26T09:12:29.747Z,68.47
2023-04-26T09:14:58.177Z,68.73
2023-04-26T09:17:31.564Z,67.99
2023-04-26T09:20:00.675Z,68.30
2023-04-26T09:22:30.315Z,67.99
2023-04-26T09:24:59.305Z,67.77
2023-04-26T09:27:38.165Z,67.52
2023-04-26T09:30:09.637Z,67.78
2023-04-26T09:32:45.981Z,67.52
2023-04-26T09:35:20.456Z,67.29
2023-04-26T09:38:12.360Z,66.61
2023-04-26T09:40:42.845Z,66.45
2023-04-26T09:43:16.108Z,66.18
2023-04-26T09:45:51.987Z,65.86
2023-04-26T09:48:22.358Z,64.99
2023-04-26T09:50:52.982Z,64.59
2023-04-26T09:53:31.892Z,64.30
2023-04-26T09:56:07.860Z,64.28
2023-04-26T09:58:40.582Z,63.85
2023-04-26T10:01:08.916Z,63.30
2023-04-26T10:03:38.268Z,63.51
2023-04-26T10:06:07.105Z,63.22
2023-04-26T10:08:36.401Z,62.24
2023-04-26T10:11:07.656Z,62.22
2023-04-26T10:13:36.182Z,61.38
2023-04-26T10:16:04.927Z,61.95
2023-04-26T10:18:33.632Z,60.81
2023-04-26T10:21:22.662Z,60.22
2023-04-26T10:23:51.747Z,60.31
2023-04-26T10:26:53.323Z,60.30
2023-04-26T10:29:22.456Z,59.99
2023-04-26T10:32:04.668Z,59.47
2023-04-26T10:34:34.004Z,60.02
2023-04-26T10:37:15.595Z,59.52
2023-04-26T10:39:46.937Z,59.41
2023-04-26T10:42:25.081Z,60.05
2023-04-26T10:44:56.350Z,60.29
2023-04-26T10:47:24.821Z,60.08
2023-04-26T10:49:53.716Z,59.49
2023-04-26T10:52:23.339Z,59.00
2023-04-26T10:54:53.624Z,59.47
2023-04-26T10:57:22.744Z,59.67
2023-04-26T11:00:14.818Z,60.00
2023-04-26T11:02:52.399Z,59.88
2023-04-26T11:05:39.009Z,58.62
2023-04-26T11:08:07.866Z,57.94
2023-04-26T11:10:39.246Z,57.94
2023-04-26T11:13:07.515Z,57.41
2023-04-26T11:15:36.404Z,57.60
2023-04-26T11:18:05.641Z,56.43
2023-04-26T11:20:34.181Z,56.29
2023-04-26T11:23:10.985Z,55.95
2023-04-26T11:25:53.792Z,56.49
2023-04-26T11:28:39.013Z,56.54
2023-04-26T11:31:10.400Z,57.09
2023-04-26T11:33:38.624Z,56.85
2023-04-26T11:36:07.380Z,56.90
2023-04-26T11:38:35.672Z,56.78
2023-04-26T11:41:04.160Z,56.33
2023-04-26T11:43:32.351Z,56.26
2023-04-26T11:46:01.670Z,57.67
2023-04-26T11:48:30.614Z,58.10
2023-04-26T11:50:59.936Z,58.08
2023-04-26T11:53:43.750Z,58.27
2023-04-26T11:56:20.220Z,57.93
2023-04-26T11:58:52.677Z,58.58
2023-04-26T12:01:22.186Z,57.90
2023-04-26T12:03:51.848Z,57.79
2023-04-26T12:06:20.759Z,57.36
2023-04-26T12:08:52.226Z,56.83
2023-04-26T12:11:23.564Z,56.66
2023-04-26T12:13:51.776Z,55.98
2023-04-26T12:16:26.449Z,54.52
2023-04-26T12:18:59.509Z,54.90
2023-04-26T12:21:30.348Z,54.75
2023-04-26T12:24:00.246Z,54.47
2023-04-26T12:26:46.658Z,53.98
2023-04-26T12:29:14.877Z,53.30
2023-04-26T12:31:43.329Z,53.53
2023-04-26T12:34:11.586Z,54.75
2023-04-26T12:36:42.254Z,54.75
2023-04-26T12:39:12.613Z,55.53
2023-04-26T12:41:41.390Z,55.38
2023-04-26T12:44:10.141Z,55.51
2023-04-26T12:46:39.149Z,56.12
2023-04-26T12:49:07.705Z,54.50
2023-04-26T12:51:35.900Z,54.15
2023-04-26T12:54:04.154Z,53.80
2023-04-26T12:56:32.347Z,52.86
2023-04-26T12:59:00.585Z,52.31
2023-04-26T13:01:28.960Z,51.14
2023-04-26T13:03:57.400Z,51.98
2023-04-26T13:06:27.980Z,51.23
2023-04-26T13:08:56.395Z,50.37
2023-04-26T13:11:24.735Z,50.91
2023-04-26T13:13:52.939Z,51.34
2023-04-26T13:16:21.217Z,51.39
2023-04-26T13:18:49.363Z,50.87
2023-04-26T13:21:17.560Z,51.86
2023-04-26T13:23:47.588Z,52.63
2023-04-26T13:26:20.460Z,52.58
2023-04-26T13:28:48.682Z,52.58
2023-04-26T13:31:18.218Z,53.64
2023-04-26T13:33:49.416Z,54.57
2023-04-26T13:36:17.705Z,55.23
2023-04-26T13:38:46.166Z,55.33
2023-04-26T13:41:15.340Z,55.42
2023-04-26T13:43:43.545Z,54.68
2023-04-26T13:46:13.109Z,53.34
2023-04-26T13:48:43.478Z,54.18
2023-04-26T13:51:19.160Z,53.92
2023-04-26T13:53:47.342Z,53.37
2023-04-26T13:56:15.577Z,53.45
2023-04-26T13:58:44.669Z,52.21
2023-04-26T14:01:17.132Z,50.70
2023-04-26T14:03:45.456Z,49.95
2023-04-26T14:06:13.895Z,50.41
2023-04-26T14:08:42.379Z,50.68
2023-04-26T14:11:14.297Z,50.89
2023-04-26T14:13:42.530Z,50.55
2023-04-26T14:16:11.179Z,50.32
2023-04-26T14:18:45.104Z,48.60
2023-04-26T14:21:14.561Z,47.93
2023-04-26T14:23:42.907Z,47.99
2023-04-26T14:26:11.405Z,47.88
2023-04-26T14:28:41.771Z,47.95
2023-04-26T14:31:13.020Z,48.66
2023-04-26T14:33:41.232Z,48.86
2023-04-26T14:36:10.151Z,48.42
2023-04-26T14:38:41.020Z,48.71
2023-04-26T14:41:19.987Z,47.98
2023-04-26T14:43:48.230Z,48.35
2023-04-26T14:46:16.653Z,48.44
2023-04-26T14:48:45.056Z,47.93
2023-04-26T14:51:15.552Z,48.16
2023-04-26T14:53:44.363Z,48.21
2023-04-26T14:56:13.707Z,48.39
2023-04-26T14:58:42.074Z,48.52
2023-04-26T15:01:11.466Z,47.79
2023-04-26T15:03:41.301Z,47.98
2023-04-26T15:06:12.645Z,48.02
2023-04-26T15:08:40.876Z,48.43
2023-04-26T15:11:09.623Z,47.83
2023-04-26T15:13:37.853Z,48.06
2023-04-26T15:16:08.129Z,48.64
2023-04-26T15:18:38.480Z,48.83
2023-04-26T15:21:06.674Z,48.34
2023-04-26T15:23:38.094Z,47.87
2023-04-26T15:26:06.387Z,48.12
2023-04-26T15:28:34.689Z,48.48
2023-04-26T15:31:08.092Z,48.34
2023-04-26T15:33:36.708Z,46.60
2023-04-26T15:36:05.570Z,46.44
2023-04-26T15:38:34.355Z,46.20
2023-04-26T15:41:03.222Z,45.86
2023-04-26T15:43:31.954Z,45.04
2023-04-26T15:46:00.364Z,45.35
2023-04-26T15:48:28.598Z,45.05
2023-04-26T15:51:01.366Z,44.31
2023-04-26T15:53:29.558Z,43.94
2023-04-26T15:55:57.749Z,44.74
2023-04-26T15:58:25.962Z,45.26
2023-04-26T16:00:54.198Z,45.86
2023-04-26T16:03:22.696Z,45.54
2023-04-26T16:05:51.346Z,45.13
2023-04-26T16:08:36.794Z,45.39
2023-04-26T16:11:10.144Z,45.95
2023-04-26T16:13:38.630Z,46.88
2023-04-26T16:16:08.991Z,46.88
2023-04-26T16:18:41.126Z,46.18
2023-04-26T16:21:15.749Z,45.17
2023-04-26T16:23:44.146Z,45.04
2023-04-26T16:26:12.684Z,45.05
2023-04-26T16:28:41.036Z,45.07
2023-04-26T16:31:10.346Z,45.61
2023-04-26T16:33:38.606Z,46.11
2023-04-26T16:36:07.136Z,46.33
2023-04-26T16:38:35.289Z,46.91
2023-04-26T16:41:03.985Z,47.28
2023-04-26T16:43:32.793Z,47.34
2023-04-26T16:46:02.067Z,47.74
2023-04-26T16:48:37.457Z,47.83
2023-04-26T16:51:07.992Z,47.50
2023-04-26T16:53:37.911Z,47.22
2023-04-26T16:56:07.036Z,47.53
2023-04-26T16:58:35.423Z,48.07
2023-04-26T17:01:03.655Z,48.38
2023-04-26T17:03:32.082Z,48.74
2023-04-26T17:06:01.679Z,48.91
2023-04-26T17:08:30.016Z,49.33
2023-04-26T17:10:58.275Z,49.61
2023-04-26T17:13:31.386Z,50.05
2023-04-26T17:16:05.953Z,50.08
2023-04-26T17:18:47.788Z,50.64
2023-04-26T17:21:19.201Z,51.26
2023-04-26T17:23:55.802Z,51.60
2023-04-26T17:26:31.309Z,52.21
2023-04-26T17:29:07.078Z,52.66
2023-04-26T17:31:35.573Z,53.10
2023-04-26T17:34:04.836Z,53.70
2023-04-26T17:36:34.093Z,54.38
2023-04-26T17:39:04.462Z,55.17
2023-04-26T17:41:34.338Z,55.52
2023-04-26T17:44:02.798Z,55.69
2023-04-26T17:46:30.971Z,55.87
2023-04-26T17:48:59.926Z,56.59
2023-04-26T17:51:31.299Z,57.20
2023-04-26T17:53:59.661Z,57.95
2023-04-26T17:56:27.869Z,58.28
2023-04-26T17:58:58.901Z,58.72
2023-04-26T18:01:27.753Z,58.84
2023-04-26T18:03:59.103Z,59.07
2023-04-26T18:06:29.431Z,59.40
2023-04-26T18:08:57.683Z,59.57
2023-04-26T18:11:28.189Z,59.62
2023-04-26T18:13:56.886Z,59.78
2023-04-26T18:16:25.199Z,60.11
2023-04-26T18:18:53.625Z,60.51
2023-04-26T18:21:22.450Z,60.63
2023-04-26T18:23:51.032Z,60.91
2023-04-26T18:26:19.288Z,60.91
2023-04-26T18:28:47.546Z,61.04
2023-04-26T18:31:16.417Z,61.10
2023-04-26T18:33:48.772Z,61.60
2023-04-26T18:36:18.321Z,61.92
2023-04-26T18:38:46.886Z,61.43
2023-04-26T18:41:15.456Z,61.45
2023-04-26T18:43:43.686Z,61.71
2023-04-26T18:46:11.939Z,61.99
2023-04-26T18:48:40.817Z,61.68
2023-04-26T18:51:09.071Z,61.88
2023-04-26T18:53:37.250Z,62.33
2023-04-26T18:56:06.852Z,62.33
2023-04-26T18:58:35.112Z,62.39
2023-04-26T19:01:03.388Z,62.21
2023-04-26T19:03:32.107Z,62.25
2023-04-26T19:06:00.507Z,62.20
2023-04-26T19:08:28.802Z,62.09
2023-04-26T19:17:11.988Z,62.02
2023-04-26T19:19:41.171Z,62.20
2023-04-26T19:22:09.451Z,62.73
2023-04-26T19:24:37.855Z,63.27
2023-04-26T19:27:06.348Z,63.22
2023-04-26T19:29:34.594Z,63.44
2023-04-26T19:32:04.820Z,63.60
2023-04-26T19:34:35.095Z,63.25
2023-04-26T19:37:07.297Z,63.50
2023-04-26T19:39:35.759Z,63.72
2023-04-26T19:42:04.189Z,63.40
2023-04-26T19:44:32.473Z,63.24
2023-04-26T19:47:01.095Z,63.44
2023-04-26T19:49:29.339Z,64.36
2023-04-26T19:51:57.528Z,64.66
2023-04-26T19:54:25.958Z,64.85
2023-04-26T19:56:54.234Z,65.54
2023-04-26T19:59:22.648Z,66.01
2023-04-26T20:01:53.635Z,66.38
2023-04-26T20:04:22.509Z,66.70
2023-04-26T20:06:51.327Z,66.28
2023-04-26T20:09:21.299Z,66.31
2023-04-26T20:11:50.010Z,66.36
2023-04-26T20:14:18.321Z,66.38
2023-04-26T20:16:46.639Z,66.84
2023-04-26T20:19:15.454Z,66.93
2023-04-26T20:21:43.637Z,66.77
2023-04-26T20:24:11.779Z,67.05
2023-04-26T20:26:40.041Z,67.46
2023-04-26T20:29:08.555Z,67.50
2023-04-26T20:31:37.245Z,66.86
2023-04-26T20:34:05.557Z,66.79
2023-04-26T20:36:33.922Z,67.30
2023-04-26T20:39:02.232Z,68.29
2023-04-26T20:41:30.845Z,68.71
2023-04-26T20:43:59.224Z,69.00
2023-04-26T20:46:27.643Z,69.77
2023-04-26T20:48:56.184Z,70.41
2023-04-26T20:51:24.526Z,70.69
2023-04-26T20:53:52.870Z,71.09
2023-04-26T20:56:21.191Z,71.41
2023-04-26T20:58:49.326Z,71.56
2023-04-26T21:01:17.870Z,71.59
2023-04-26T21:03:46.482Z,71.32
2023-04-26T21:06:14.968Z,71.46
2023-04-26T21:08:43.603Z,71.69
2023-04-26T21:11:11.908Z,71.59
2023-04-26T21:13:40.088Z,71.47
2023-04-26T21:16:08.833Z,71.69
2023-04-26T21:18:37.053Z,71.70
2023-04-26T21:21:05.461Z,71.43
2023-04-26T21:23:34.063Z,71.39
2023-04-26T21:26:02.345Z,71.41
2023-04-26T21:28:30.549Z,71.54
2023-04-26T21:31:06.385Z,71.10
2023-04-26T21:33:34.916Z,70.75
2023-04-26T21:36:03.217Z,70.51
2023-04-26T21:38:31.491Z,70.52
2023-04-26T21:40:59.710Z,70.11
2023-04-26T21:43:27.952Z,70.12
2023-04-26T21:45:58.354Z,70.20
2023-04-26T21:48:27.013Z,70.12
2023-04-26T21:50:55.233Z,70.04
2023-04-26T21:53:23.404Z,70.10
2023-04-26T21:55:55.594Z,70.02
2023-04-26T21:58:23.806Z,69.60
2023-04-26T22:00:52.261Z,69.49
2023-04-26T22:03:22.084Z,69.48
2023-04-26T22:17:09.490Z,69.55
2023-04-26T22:19:37.758Z,69.35
2023-04-26T22:22:06.238Z,69.67
2023-04-26T22:24:34.364Z,70.09
2023-04-26T22:27:03.963Z,70.27
2023-04-26T22:29:32.187Z,69.89
2023-04-26T22:32:00.472Z,69.85
2023-04-26T22:34:28.784Z,69.72
2023-04-26T22:37:03.482Z,69.86
2023-04-26T22:39:38.008Z,70.40
2023-04-26T22:42:06.348Z,70.15
2023-04-26T22:44:34.568Z,70.14
2023-04-26T22:47:02.738Z,70.11
2023-04-26T22:49:37.866Z,70.28
2023-04-26T22:52:12.113Z,70.61
2023-04-26T22:54:50.331Z,71.01
2023-04-26T22:57:19.657Z,71.29
2023-04-26T22:59:47.837Z,71.38
2023-04-26T23:02:16.089Z,71.61
2023-04-26T23:04:44.449Z,71.41
2023-04-26T23:07:12.683Z,71.23
2023-04-26T23:09:41.407Z,71.31
2023-04-26T23:12:09.981Z,71.74
2023-04-26T23:14:38.171Z,71.88
2023-04-26T23:17:06.446Z,71.98
2023-04-26T23:19:35.354Z,71.93
2023-04-26T23:22:03.626Z,71.56
2023-04-26T23:24:31.791Z,71.30
2023-04-26T23:26:59.968Z,71.02
2023-04-26T23:29:28.259Z,70.68
2023-04-26T23:31:56.541Z,70.58
2023-04-26T23:34:24.735Z,70.33
2023-04-26T23:36:52.969Z,69.98
2023-04-26T23:39:21.182Z,69.75
2023-04-26T23:41:49.325Z,69.65
2023-04-26T23:44:17.521Z,69.50
2023-04-26T23:46:45.826Z,69.16
2023-04-26T23:49:14.329Z,68.75
2023-04-26T23:51:42.909Z,68.80
2023-04-26T23:54:12.472Z,68.54
2023-04-26T23:56:40.753Z,68.64
2023-04-26T23:59:08.975Z,68.75
